sensor_id;sensor_type;location;lat;lon;timestamp;P1;durP1;ratioP1;P2;durP2;ratioP2
17520;SDS011;8878;-33.370;-70.552;2023-08-17T00:01:31;2.83;;;2.27;;
17520;SDS011;8878;-33.370;-70.552;2023-08-17T00:04:01;4.13;;;2.13;;
17520;SDS011;8878;-33.370;-70.552;2023-08-17T00:06:30;11.10;;;3.03;;
17520;SDS011;8878;-33.370;-70.552;2023-08-17T00:09:00;2.20;;;1.60;;
17520;SDS011;8878;-33.370;-70.552;2023-08-17T00:11:32;4.47;;;2.77;;
17520;SDS011;8878;-33.370;-70.552;2023-08-17T00:14:02;4.37;;;1.90;;
17520;SDS011;8878;-33.370;-70.552;2023-08-17T00:16:32;6.23;;;2.23;;
17520;SDS011;8878;-33.370;-70.552;2023-08-17T00:19:01;4.13;;;1.63;;
17520;SDS011;8878;-33.370;-70.552;2023-08-17T00:21:32;3.63;;;2.13;;
17520;SDS011;8878;-33.370;-70.552;2023-08-17T00:24:03;6.20;;;1.57;;
17520;SDS011;8878;-33.370;-70.552;2023-08-17T00:26:33;2.43;;;1.70;;
17520;SDS011;8878;-33.370;-70.552;2023-08-17T00:29:06;2.87;;;1.70;;
17520;SDS011;8878;-33.370;-70.552;2023-08-17T00:31:35;8.43;;;2.37;;
17520;SDS011;8878;-33.370;-70.552;2023-08-17T00:34:05;5.20;;;2.00;;
17520;SDS011;8878;-33.370;-70.552;2023-08-17T00:36:34;4.20;;;2.13;;
17520;SDS011;8878;-33.370;-70.552;2023-08-17T00:39:05;2.97;;;2.27;;
17520;SDS011;8878;-33.370;-70.552;2023-08-17T00:41:35;3.17;;;2.83;;
17520;SDS011;8878;-33.370;-70.552;2023-08-17T00:56:40;6.60;;;2.13;;
17520;SDS011;8878;-33.370;-70.552;2023-08-17T00:59:10;8.03;;;3.00;;
17520;SDS011;8878;-33.370;-70.552;2023-08-17T01:01:39;4.73;;;2.20;;
17520;SDS011;8878;-33.370;-70.552;2023-08-17T01:04:09;5.30;;;2.10;;
17520;SDS011;8878;-33.370;-70.552;2023-08-17T01:06:38;3.10;;;2.00;;
17520;SDS011;8878;-33.370;-70.552;2023-08-17T01:09:08;5.70;;;2.23;;
17520;SDS011;8878;-33.370;-70.552;2023-08-17T01:24:28;3.90;;;2.80;;
17520;SDS011;8878;-33.370;-70.552;2023-08-17T01:26:57;2.20;;;1.87;;
17520;SDS011;8878;-33.370;-70.552;2023-08-17T01:29:27;4.37;;;2.17;;
17520;SDS011;8878;-33.370;-70.552;2023-08-17T01:31:58;3.63;;;1.70;;
17520;SDS011;8878;-33.370;-70.552;2023-08-17T01:34:36;3.23;;;2.13;;
17520;SDS011;8878;-33.370;-70.552;2023-08-17T01:37:08;5.53;;;3.03;;
17520;SDS011;8878;-33.370;-70.552;2023-08-17T01:39:43;1.73;;;1.43;;
17520;SDS011;8878;-33.370;-70.552;2023-08-17T01:42:13;1.63;;;1.20;;
17520;SDS011;8878;-33.370;-70.552;2023-08-17T01:44:44;3.40;;;2.13;;
17520;SDS011;8878;-33.370;-70.552;2023-08-17T01:47:14;4.53;;;1.87;;
17520;SDS011;8878;-33.370;-70.552;2023-08-17T01:49:43;3.33;;;1.57;;
17520;SDS011;8878;-33.370;-70.552;2023-08-17T01:52:13;3.63;;;1.83;;
17520;SDS011;8878;-33.370;-70.552;2023-08-17T01:54:44;6.90;;;2.07;;
17520;SDS011;8878;-33.370;-70.552;2023-08-17T01:57:14;2.20;;;0.97;;
17520;SDS011;8878;-33.370;-70.552;2023-08-17T01:59:43;1.83;;;1.73;;
17520;SDS011;8878;-33.370;-70.552;2023-08-17T02:02:12;2.57;;;1.90;;
17520;SDS011;8878;-33.370;-70.552;2023-08-17T02:04:43;3.20;;;1.43;;
17520;SDS011;8878;-33.370;-70.552;2023-08-17T02:07:12;3.33;;;1.60;;
17520;SDS011;8878;-33.370;-70.552;2023-08-17T02:09:42;7.20;;;1.67;;
17520;SDS011;8878;-33.370;-70.552;2023-08-17T02:12:13;4.63;;;1.80;;
17520;SDS011;8878;-33.370;-70.552;2023-08-17T02:14:43;5.87;;;2.27;;
17520;SDS011;8878;-33.370;-70.552;2023-08-17T02:17:13;3.00;;;2.30;;
17520;SDS011;8878;-33.370;-70.552;2023-08-17T02:19:44;6.13;;;3.10;;
17520;SDS011;8878;-33.370;-70.552;2023-08-17T02:22:15;2.97;;;2.40;;
17520;SDS011;8878;-33.370;-70.552;2023-08-17T02:24:46;5.00;;;2.30;;
17520;SDS011;8878;-33.370;-70.552;2023-08-17T02:27:16;8.40;;;2.07;;
17520;SDS011;8878;-33.370;-70.552;2023-08-17T02:29:45;5.60;;;3.33;;
17520;SDS011;8878;-33.370;-70.552;2023-08-17T02:32:14;15.87;;;4.00;;
17520;SDS011;8878;-33.370;-70.552;2023-08-17T02:34:44;5.50;;;3.23;;
17520;SDS011;8878;-33.370;-70.552;2023-08-17T02:37:13;7.10;;;3.67;;
17520;SDS011;8878;-33.370;-70.552;2023-08-17T02:39:43;5.97;;;3.43;;
17520;SDS011;8878;-33.370;-70.552;2023-08-17T02:42:14;4.43;;;2.37;;
17520;SDS011;8878;-33.370;-70.552;2023-08-17T02:44:43;6.07;;;3.30;;
17520;SDS011;8878;-33.370;-70.552;2023-08-17T02:47:13;5.20;;;2.30;;
17520;SDS011;8878;-33.370;-70.552;2023-08-17T02:49:42;1.57;;;1.23;;
17520;SDS011;8878;-33.370;-70.552;2023-08-17T02:52:13;0.90;;;0.90;;
17520;SDS011;8878;-33.370;-70.552;2023-08-17T02:54:42;2.97;;;1.60;;
17520;SDS011;8878;-33.370;-70.552;2023-08-17T02:57:12;1.70;;;1.67;;
17520;SDS011;8878;-33.370;-70.552;2023-08-17T02:59:44;2.07;;;1.97;;
17520;SDS011;8878;-33.370;-70.552;2023-08-17T03:02:13;10.50;;;1.90;;
17520;SDS011;8878;-33.370;-70.552;2023-08-17T03:04:43;2.97;;;2.57;;
17520;SDS011;8878;-33.370;-70.552;2023-08-17T03:07:12;3.30;;;2.90;;
17520;SDS011;8878;-33.370;-70.552;2023-08-17T03:09:42;7.33;;;3.60;;
17520;SDS011;8878;-33.370;-70.552;2023-08-17T03:12:12;5.90;;;2.40;;
17520;SDS011;8878;-33.370;-70.552;2023-08-17T03:14:43;3.93;;;3.00;;
17520;SDS011;8878;-33.370;-70.552;2023-08-17T03:17:13;6.37;;;2.90;;
17520;SDS011;8878;-33.370;-70.552;2023-08-17T03:19:42;6.17;;;1.37;;
17520;SDS011;8878;-33.370;-70.552;2023-08-17T03:22:11;3.07;;;2.00;;
17520;SDS011;8878;-33.370;-70.552;2023-08-17T03:24:41;6.27;;;2.97;;
17520;SDS011;8878;-33.370;-70.552;2023-08-17T03:27:10;4.23;;;2.60;;
17520;SDS011;8878;-33.370;-70.552;2023-08-17T03:29:41;2.80;;;2.60;;
17520;SDS011;8878;-33.370;-70.552;2023-08-17T03:32:11;3.87;;;3.47;;
17520;SDS011;8878;-33.370;-70.552;2023-08-17T04:03:49;8.88;;;4.20;;
17520;SDS011;8878;-33.370;-70.552;2023-08-17T04:06:18;4.77;;;2.70;;
17520;SDS011;8878;-33.370;-70.552;2023-08-17T04:08:48;5.77;;;2.77;;
17520;SDS011;8878;-33.370;-70.552;2023-08-17T04:11:17;3.60;;;2.23;;
17520;SDS011;8878;-33.370;-70.552;2023-08-17T04:13:47;5.20;;;2.00;;
17520;SDS011;8878;-33.370;-70.552;2023-08-17T04:16:28;5.37;;;3.50;;
17520;SDS011;8878;-33.370;-70.552;2023-08-17T04:18:59;2.73;;;2.17;;
17520;SDS011;8878;-33.370;-70.552;2023-08-17T04:21:29;4.03;;;2.97;;
17520;SDS011;8878;-33.370;-70.552;2023-08-17T04:23:58;4.80;;;2.70;;
17520;SDS011;8878;-33.370;-70.552;2023-08-17T04:26:28;4.93;;;2.27;;
17520;SDS011;8878;-33.370;-70.552;2023-08-17T04:28:57;6.50;;;3.53;;
17520;SDS011;8878;-33.370;-70.552;2023-08-17T04:31:27;5.40;;;2.37;;
17520;SDS011;8878;-33.370;-70.552;2023-08-17T04:33:57;5.60;;;2.90;;
17520;SDS011;8878;-33.370;-70.552;2023-08-17T04:36:28;5.20;;;3.17;;
17520;SDS011;8878;-33.370;-70.552;2023-08-17T04:38:58;4.93;;;2.60;;
17520;SDS011;8878;-33.370;-70.552;2023-08-17T04:41:28;6.57;;;4.23;;
17520;SDS011;8878;-33.370;-70.552;2023-08-17T04:43:57;4.23;;;3.17;;
17520;SDS011;8878;-33.370;-70.552;2023-08-17T04:46:27;14.37;;;2.77;;
17520;SDS011;8878;-33.370;-70.552;2023-08-17T04:48:57;6.73;;;2.70;;
17520;SDS011;8878;-33.370;-70.552;2023-08-17T04:51:28;4.13;;;2.53;;
17520;SDS011;8878;-33.370;-70.552;2023-08-17T04:53:58;3.83;;;3.03;;
17520;SDS011;8878;-33.370;-70.552;2023-08-17T04:56:28;10.30;;;3.73;;
17520;SDS011;8878;-33.370;-70.552;2023-08-17T04:58:58;5.57;;;2.90;;
17520;SDS011;8878;-33.370;-70.552;2023-08-17T05:01:27;7.90;;;3.60;;
17520;SDS011;8878;-33.370;-70.552;2023-08-17T05:03:59;9.30;;;5.33;;
17520;SDS011;8878;-33.370;-70.552;2023-08-17T05:06:29;5.67;;;3.87;;
17520;SDS011;8878;-33.370;-70.552;2023-08-17T05:08:59;6.10;;;3.43;;
17520;SDS011;8878;-33.370;-70.552;2023-08-17T05:11:29;6.70;;;2.53;;
17520;SDS011;8878;-33.370;-70.552;2023-08-17T05:13:58;6.87;;;3.13;;
17520;SDS011;8878;-33.370;-70.552;2023-08-17T05:16:28;3.83;;;2.63;;
17520;SDS011;8878;-33.370;-70.552;2023-08-17T05:19:00;5.63;;;4.07;;
17520;SDS011;8878;-33.370;-70.552;2023-08-17T05:21:30;3.37;;;2.93;;
17520;SDS011;8878;-33.370;-70.552;2023-08-17T05:23:59;7.00;;;3.93;;
17520;SDS011;8878;-33.370;-70.552;2023-08-17T05:26:29;4.07;;;3.27;;
17520;SDS011;8878;-33.370;-70.552;2023-08-17T05:28:58;4.77;;;2.93;;
17520;SDS011;8878;-33.370;-70.552;2023-08-17T05:31:28;6.80;;;4.03;;
17520;SDS011;8878;-33.370;-70.552;2023-08-17T05:48:25;6.57;;;3.33;;
17520;SDS011;8878;-33.370;-70.552;2023-08-17T06:04:25;7.45;;;3.55;;
17520;SDS011;8878;-33.370;-70.552;2023-08-17T06:06:55;3.47;;;2.73;;
17520;SDS011;8878;-33.370;-70.552;2023-08-17T06:09:25;3.97;;;3.67;;
17520;SDS011;8878;-33.370;-70.552;2023-08-17T06:11:55;7.57;;;2.80;;
17520;SDS011;8878;-33.370;-70.552;2023-08-17T06:14:24;4.53;;;3.33;;
17520;SDS011;8878;-33.370;-70.552;2023-08-17T06:16:54;6.60;;;2.57;;
17520;SDS011;8878;-33.370;-70.552;2023-08-17T06:19:26;2.83;;;2.23;;
17520;SDS011;8878;-33.370;-70.552;2023-08-17T06:21:56;6.13;;;3.00;;
17520;SDS011;8878;-33.370;-70.552;2023-08-17T06:24:26;3.70;;;2.50;;
17520;SDS011;8878;-33.370;-70.552;2023-08-17T06:26:56;15.00;;;2.43;;
17520;SDS011;8878;-33.370;-70.552;2023-08-17T06:29:25;3.83;;;2.50;;
17520;SDS011;8878;-33.370;-70.552;2023-08-17T06:31:55;2.17;;;2.03;;
17520;SDS011;8878;-33.370;-70.552;2023-08-17T06:34:27;3.10;;;2.60;;
17520;SDS011;8878;-33.370;-70.552;2023-08-17T06:36:57;3.97;;;3.63;;
17520;SDS011;8878;-33.370;-70.552;2023-08-17T06:39:27;4.43;;;3.53;;
17520;SDS011;8878;-33.370;-70.552;2023-08-17T06:41:57;1.97;;;1.80;;
17520;SDS011;8878;-33.370;-70.552;2023-08-17T06:44:26;2.27;;;2.07;;
17520;SDS011;8878;-33.370;-70.552;2023-08-17T06:46:57;3.23;;;2.93;;
17520;SDS011;8878;-33.370;-70.552;2023-08-17T06:49:30;4.17;;;1.97;;
17520;SDS011;8878;-33.370;-70.552;2023-08-17T06:51:59;2.27;;;2.17;;
17520;SDS011;8878;-33.370;-70.552;2023-08-17T06:54:28;2.80;;;2.13;;
17520;SDS011;8878;-33.370;-70.552;2023-08-17T06:57:00;3.47;;;1.93;;
17520;SDS011;8878;-33.370;-70.552;2023-08-17T06:59:29;3.20;;;1.97;;
17520;SDS011;8878;-33.370;-70.552;2023-08-17T07:01:59;2.70;;;2.20;;
17520;SDS011;8878;-33.370;-70.552;2023-08-17T07:04:31;5.17;;;2.63;;
17520;SDS011;8878;-33.370;-70.552;2023-08-17T07:07:00;6.60;;;2.30;;
17520;SDS011;8878;-33.370;-70.552;2023-08-17T07:09:29;7.10;;;3.93;;
17520;SDS011;8878;-33.370;-70.552;2023-08-17T07:11:59;4.27;;;2.83;;
17520;SDS011;8878;-33.370;-70.552;2023-08-17T07:14:28;4.70;;;2.77;;
17520;SDS011;8878;-33.370;-70.552;2023-08-17T07:16:59;5.73;;;2.27;;
17520;SDS011;8878;-33.370;-70.552;2023-08-17T07:19:30;3.83;;;2.73;;
17520;SDS011;8878;-33.370;-70.552;2023-08-17T07:22:00;5.10;;;2.47;;
17520;SDS011;8878;-33.370;-70.552;2023-08-17T07:24:30;5.53;;;3.27;;
17520;SDS011;8878;-33.370;-70.552;2023-08-17T07:26:59;3.07;;;2.67;;
17520;SDS011;8878;-33.370;-70.552;2023-08-17T07:29:28;2.57;;;2.00;;
17520;SDS011;8878;-33.370;-70.552;2023-08-17T07:31:59;8.43;;;2.87;;
17520;SDS011;8878;-33.370;-70.552;2023-08-17T07:34:31;5.10;;;3.60;;
17520;SDS011;8878;-33.370;-70.552;2023-08-17T07:37:00;5.53;;;3.10;;
17520;SDS011;8878;-33.370;-70.552;2023-08-17T07:39:29;2.13;;;1.73;;
17520;SDS011;8878;-33.370;-70.552;2023-08-17T07:42:01;5.67;;;3.30;;
17520;SDS011;8878;-33.370;-70.552;2023-08-17T07:44:30;2.57;;;2.23;;
17520;SDS011;8878;-33.370;-70.552;2023-08-17T07:47:00;6.77;;;4.10;;
17520;SDS011;8878;-33.370;-70.552;2023-08-17T07:49:32;8.90;;;2.50;;
17520;SDS011;8878;-33.370;-70.552;2023-08-17T07:52:01;7.00;;;3.53;;
17520;SDS011;8878;-33.370;-70.552;2023-08-17T07:54:31;3.40;;;2.03;;
17520;SDS011;8878;-33.370;-70.552;2023-08-17T07:57:00;11.20;;;2.83;;
17520;SDS011;8878;-33.370;-70.552;2023-08-17T07:59:31;4.33;;;3.33;;
17520;SDS011;8878;-33.370;-70.552;2023-08-17T08:02:00;3.90;;;1.93;;
17520;SDS011;8878;-33.370;-70.552;2023-08-17T08:04:32;4.80;;;1.80;;
17520;SDS011;8878;-33.370;-70.552;2023-08-17T08:07:01;5.70;;;4.13;;
17520;SDS011;8878;-33.370;-70.552;2023-08-17T08:09:31;3.20;;;2.63;;
17520;SDS011;8878;-33.370;-70.552;2023-08-17T08:12:00;6.10;;;3.03;;
17520;SDS011;8878;-33.370;-70.552;2023-08-17T08:14:29;5.90;;;3.50;;
17520;SDS011;8878;-33.370;-70.552;2023-08-17T08:16:59;8.03;;;3.03;;
17520;SDS011;8878;-33.370;-70.552;2023-08-17T08:19:29;11.90;;;3.60;;
17520;SDS011;8878;-33.370;-70.552;2023-08-17T08:22:00;9.33;;;4.33;;
17520;SDS011;8878;-33.370;-70.552;2023-08-17T08:24:30;5.00;;;2.90;;
17520;SDS011;8878;-33.370;-70.552;2023-08-17T08:27:01;8.17;;;2.73;;
17520;SDS011;8878;-33.370;-70.552;2023-08-17T08:29:30;7.23;;;3.53;;
17520;SDS011;8878;-33.370;-70.552;2023-08-17T08:32:00;7.23;;;3.73;;
17520;SDS011;8878;-33.370;-70.552;2023-08-17T08:34:31;7.80;;;2.97;;
17520;SDS011;8878;-33.370;-70.552;2023-08-17T08:37:01;8.93;;;4.57;;
17520;SDS011;8878;-33.370;-70.552;2023-08-17T08:39:30;3.27;;;2.33;;
17520;SDS011;8878;-33.370;-70.552;2023-08-17T08:42:00;4.47;;;3.73;;
17520;SDS011;8878;-33.370;-70.552;2023-08-17T08:44:29;5.17;;;3.53;;
17520;SDS011;8878;-33.370;-70.552;2023-08-17T08:47:00;7.43;;;4.03;;
17520;SDS011;8878;-33.370;-70.552;2023-08-17T08:49:32;6.50;;;3.27;;
17520;SDS011;8878;-33.370;-70.552;2023-08-17T08:52:04;7.10;;;2.57;;
17520;SDS011;8878;-33.370;-70.552;2023-08-17T08:54:36;5.83;;;2.63;;
17520;SDS011;8878;-33.370;-70.552;2023-08-17T08:57:10;4.67;;;3.07;;
17520;SDS011;8878;-33.370;-70.552;2023-08-17T08:59:42;2.70;;;1.77;;
17520;SDS011;8878;-33.370;-70.552;2023-08-17T09:02:15;4.57;;;2.30;;
17520;SDS011;8878;-33.370;-70.552;2023-08-17T09:04:47;6.03;;;3.43;;
17520;SDS011;8878;-33.370;-70.552;2023-08-17T09:07:16;9.63;;;3.53;;
17520;SDS011;8878;-33.370;-70.552;2023-08-17T09:09:48;4.77;;;3.20;;
17520;SDS011;8878;-33.370;-70.552;2023-08-17T09:12:19;8.37;;;4.30;;
17520;SDS011;8878;-33.370;-70.552;2023-08-17T09:14:49;16.70;;;5.23;;
17520;SDS011;8878;-33.370;-70.552;2023-08-17T09:17:23;3.37;;;2.83;;
17520;SDS011;8878;-33.370;-70.552;2023-08-17T09:19:55;4.53;;;3.13;;
17520;SDS011;8878;-33.370;-70.552;2023-08-17T09:22:25;6.00;;;3.77;;
17520;SDS011;8878;-33.370;-70.552;2023-08-17T09:25:07;5.73;;;3.67;;
17520;SDS011;8878;-33.370;-70.552;2023-08-17T09:27:38;3.80;;;2.57;;
17520;SDS011;8878;-33.370;-70.552;2023-08-17T09:30:09;15.30;;;3.10;;
17520;SDS011;8878;-33.370;-70.552;2023-08-17T09:32:40;7.30;;;3.20;;
17520;SDS011;8878;-33.370;-70.552;2023-08-17T09:35:14;4.03;;;2.70;;
17520;SDS011;8878;-33.370;-70.552;2023-08-17T09:37:43;6.70;;;4.30;;
17520;SDS011;8878;-33.370;-70.552;2023-08-17T09:40:13;2.67;;;2.10;;
17520;SDS011;8878;-33.370;-70.552;2023-08-17T09:42:43;4.67;;;3.73;;
17520;SDS011;8878;-33.370;-70.552;2023-08-17T09:45:13;3.40;;;3.07;;
17520;SDS011;8878;-33.370;-70.552;2023-08-17T09:47:46;6.63;;;3.67;;
17520;SDS011;8878;-33.370;-70.552;2023-08-17T09:50:18;4.63;;;4.03;;
17520;SDS011;8878;-33.370;-70.552;2023-08-17T09:52:52;4.63;;;3.10;;
17520;SDS011;8878;-33.370;-70.552;2023-08-17T09:55:22;3.03;;;2.13;;
17520;SDS011;8878;-33.370;-70.552;2023-08-17T09:57:52;4.70;;;3.53;;
17520;SDS011;8878;-33.370;-70.552;2023-08-17T10:00:22;6.37;;;2.23;;
17520;SDS011;8878;-33.370;-70.552;2023-08-17T10:02:53;8.53;;;2.33;;
17520;SDS011;8878;-33.370;-70.552;2023-08-17T10:05:25;4.97;;;3.43;;
17520;SDS011;8878;-33.370;-70.552;2023-08-17T10:07:56;5.00;;;2.97;;
17520;SDS011;8878;-33.370;-70.552;2023-08-17T10:10:27;7.63;;;2.73;;
17520;SDS011;8878;-33.370;-70.552;2023-08-17T10:13:09;10.17;;;4.77;;
17520;SDS011;8878;-33.370;-70.552;2023-08-17T10:15:41;4.97;;;2.93;;
17520;SDS011;8878;-33.370;-70.552;2023-08-17T10:18:17;7.23;;;3.77;;
17520;SDS011;8878;-33.370;-70.552;2023-08-17T10:21:00;4.80;;;3.70;;
17520;SDS011;8878;-33.370;-70.552;2023-08-17T10:23:31;6.17;;;3.87;;
17520;SDS011;8878;-33.370;-70.552;2023-08-17T10:26:01;3.90;;;2.57;;
17520;SDS011;8878;-33.370;-70.552;2023-08-17T10:28:34;3.43;;;3.07;;
17520;SDS011;8878;-33.370;-70.552;2023-08-17T10:31:04;6.17;;;3.37;;
17520;SDS011;8878;-33.370;-70.552;2023-08-17T10:33:35;4.97;;;3.50;;
17520;SDS011;8878;-33.370;-70.552;2023-08-17T10:36:09;7.90;;;2.87;;
17520;SDS011;8878;-33.370;-70.552;2023-08-17T10:38:39;3.70;;;2.97;;
17520;SDS011;8878;-33.370;-70.552;2023-08-17T10:56:04;5.28;;;3.08;;
17520;SDS011;8878;-33.370;-70.552;2023-08-17T10:58:36;5.50;;;3.80;;
17520;SDS011;8878;-33.370;-70.552;2023-08-17T11:01:06;5.27;;;3.43;;
17520;SDS011;8878;-33.370;-70.552;2023-08-17T11:03:37;8.27;;;2.77;;
17520;SDS011;8878;-33.370;-70.552;2023-08-17T11:06:18;11.70;;;3.23;;
17520;SDS011;8878;-33.370;-70.552;2023-08-17T11:08:56;4.20;;;2.13;;
17520;SDS011;8878;-33.370;-70.552;2023-08-17T11:11:28;3.60;;;2.67;;
17520;SDS011;8878;-33.370;-70.552;2023-08-17T11:14:00;8.83;;;3.53;;
17520;SDS011;8878;-33.370;-70.552;2023-08-17T11:16:30;4.60;;;4.07;;
17520;SDS011;8878;-33.370;-70.552;2023-08-17T11:19:01;4.00;;;3.47;;
17520;SDS011;8878;-33.370;-70.552;2023-08-17T11:21:31;4.97;;;3.23;;
17520;SDS011;8878;-33.370;-70.552;2023-08-17T11:24:01;3.73;;;2.17;;
17520;SDS011;8878;-33.370;-70.552;2023-08-17T11:26:36;6.80;;;3.43;;
17520;SDS011;8878;-33.370;-70.552;2023-08-17T11:29:06;5.70;;;2.97;;
17520;SDS011;8878;-33.370;-70.552;2023-08-17T11:31:36;4.70;;;3.70;;
17520;SDS011;8878;-33.370;-70.552;2023-08-17T11:34:09;6.33;;;3.50;;
17520;SDS011;8878;-33.370;-70.552;2023-08-17T11:36:43;7.00;;;4.70;;
17520;SDS011;8878;-33.370;-70.552;2023-08-17T11:39:12;7.10;;;4.23;;
17520;SDS011;8878;-33.370;-70.552;2023-08-17T11:41:43;5.40;;;3.67;;
17520;SDS011;8878;-33.370;-70.552;2023-08-17T11:44:13;11.80;;;5.30;;
17520;SDS011;8878;-33.370;-70.552;2023-08-17T11:46:43;7.97;;;2.97;;
17520;SDS011;8878;-33.370;-70.552;2023-08-17T11:49:12;4.87;;;3.03;;
17520;SDS011;8878;-33.370;-70.552;2023-08-17T11:51:42;6.53;;;2.43;;
17520;SDS011;8878;-33.370;-70.552;2023-08-17T11:54:12;5.40;;;3.57;;
17520;SDS011;8878;-33.370;-70.552;2023-08-17T11:56:44;8.10;;;4.93;;
17520;SDS011;8878;-33.370;-70.552;2023-08-17T11:59:14;6.20;;;3.50;;
17520;SDS011;8878;-33.370;-70.552;2023-08-17T12:01:44;5.37;;;3.87;;
17520;SDS011;8878;-33.370;-70.552;2023-08-17T12:04:13;13.60;;;4.87;;
17520;SDS011;8878;-33.370;-70.552;2023-08-17T12:06:43;7.20;;;2.63;;
17520;SDS011;8878;-33.370;-70.552;2023-08-17T12:09:13;4.73;;;2.67;;
17520;SDS011;8878;-33.370;-70.552;2023-08-17T12:23:20;8.20;;;3.87;;
17520;SDS011;8878;-33.370;-70.552;2023-08-17T12:25:53;6.67;;;4.63;;
17520;SDS011;8878;-33.370;-70.552;2023-08-17T12:28:23;8.50;;;3.87;;
17520;SDS011;8878;-33.370;-70.552;2023-08-17T12:31:00;3.30;;;2.73;;
17520;SDS011;8878;-33.370;-70.552;2023-08-17T12:33:30;8.83;;;3.87;;
17520;SDS011;8878;-33.370;-70.552;2023-08-17T12:36:00;8.53;;;4.13;;
17520;SDS011;8878;-33.370;-70.552;2023-08-17T12:38:32;7.17;;;4.40;;
17520;SDS011;8878;-33.370;-70.552;2023-08-17T12:41:01;4.47;;;3.97;;
17520;SDS011;8878;-33.370;-70.552;2023-08-17T12:43:31;6.67;;;3.63;;
17520;SDS011;8878;-33.370;-70.552;2023-08-17T12:46:00;7.93;;;2.87;;
17520;SDS011;8878;-33.370;-70.552;2023-08-17T12:48:30;4.30;;;3.80;;
17520;SDS011;8878;-33.370;-70.552;2023-08-17T12:50:59;4.47;;;3.10;;
17520;SDS011;8878;-33.370;-70.552;2023-08-17T12:53:28;14.43;;;4.80;;
17520;SDS011;8878;-33.370;-70.552;2023-08-17T12:56:00;7.53;;;3.63;;
17520;SDS011;8878;-33.370;-70.552;2023-08-17T12:58:29;4.37;;;2.83;;
17520;SDS011;8878;-33.370;-70.552;2023-08-17T13:00:59;4.60;;;2.67;;
17520;SDS011;8878;-33.370;-70.552;2023-08-17T13:03:28;7.30;;;3.50;;
17520;SDS011;8878;-33.370;-70.552;2023-08-17T13:05:58;8.37;;;3.87;;
17520;SDS011;8878;-33.370;-70.552;2023-08-17T13:08:27;8.73;;;3.13;;
17520;SDS011;8878;-33.370;-70.552;2023-08-17T13:10:59;9.30;;;3.00;;
17520;SDS011;8878;-33.370;-70.552;2023-08-17T13:13:29;6.93;;;4.00;;
17520;SDS011;8878;-33.370;-70.552;2023-08-17T13:15:58;7.50;;;3.53;;
17520;SDS011;8878;-33.370;-70.552;2023-08-17T13:18:28;7.50;;;3.30;;
17520;SDS011;8878;-33.370;-70.552;2023-08-17T13:20:57;5.27;;;3.70;;
17520;SDS011;8878;-33.370;-70.552;2023-08-17T13:23:26;5.67;;;3.20;;
17520;SDS011;8878;-33.370;-70.552;2023-08-17T13:25:56;7.37;;;4.13;;
17520;SDS011;8878;-33.370;-70.552;2023-08-17T13:28:28;6.10;;;4.87;;
17520;SDS011;8878;-33.370;-70.552;2023-08-17T13:30:57;7.93;;;4.90;;
17520;SDS011;8878;-33.370;-70.552;2023-08-17T13:33:26;11.13;;;4.47;;
17520;SDS011;8878;-33.370;-70.552;2023-08-17T13:35:56;7.87;;;4.50;;
17520;SDS011;8878;-33.370;-70.552;2023-08-17T13:38:25;5.93;;;3.97;;
17520;SDS011;8878;-33.370;-70.552;2023-08-17T13:40:55;5.07;;;3.57;;
17520;SDS011;8878;-33.370;-70.552;2023-08-17T13:43:26;8.87;;;4.47;;
17520;SDS011;8878;-33.370;-70.552;2023-08-17T13:45:55;14.40;;;3.20;;
17520;SDS011;8878;-33.370;-70.552;2023-08-17T13:48:25;8.40;;;5.00;;
17520;SDS011;8878;-33.370;-70.552;2023-08-17T13:50:54;11.90;;;5.27;;
17520;SDS011;8878;-33.370;-70.552;2023-08-17T13:53:24;8.37;;;4.23;;
17520;SDS011;8878;-33.370;-70.552;2023-08-17T13:55:53;10.30;;;4.93;;
17520;SDS011;8878;-33.370;-70.552;2023-08-17T13:58:23;5.63;;;3.20;;
17520;SDS011;8878;-33.370;-70.552;2023-08-17T14:00:54;11.77;;;3.70;;
17520;SDS011;8878;-33.370;-70.552;2023-08-17T14:03:23;8.07;;;4.90;;
17520;SDS011;8878;-33.370;-70.552;2023-08-17T14:05:53;8.33;;;4.23;;
17520;SDS011;8878;-33.370;-70.552;2023-08-17T14:08:23;19.13;;;3.83;;
17520;SDS011;8878;-33.370;-70.552;2023-08-17T14:10:52;5.90;;;3.47;;
17520;SDS011;8878;-33.370;-70.552;2023-08-17T14:13:22;5.97;;;3.93;;
17520;SDS011;8878;-33.370;-70.552;2023-08-17T14:15:54;5.43;;;4.03;;
17520;SDS011;8878;-33.370;-70.552;2023-08-17T14:52:06;12.13;;;5.27;;
17520;SDS011;8878;-33.370;-70.552;2023-08-17T14:54:36;10.87;;;5.53;;
17520;SDS011;8878;-33.370;-70.552;2023-08-17T14:57:05;11.67;;;5.03;;
17520;SDS011;8878;-33.370;-70.552;2023-08-17T14:59:35;8.50;;;4.93;;
17520;SDS011;8878;-33.370;-70.552;2023-08-17T15:02:04;10.47;;;5.27;;
17520;SDS011;8878;-33.370;-70.552;2023-08-17T15:04:36;11.70;;;5.17;;
17520;SDS011;8878;-33.370;-70.552;2023-08-17T15:07:07;9.43;;;4.50;;
17520;SDS011;8878;-33.370;-70.552;2023-08-17T15:09:37;8.03;;;5.00;;
17520;SDS011;8878;-33.370;-70.552;2023-08-17T15:12:07;13.03;;;5.50;;
17520;SDS011;8878;-33.370;-70.552;2023-08-17T15:14:36;7.83;;;4.20;;
17520;SDS011;8878;-33.370;-70.552;2023-08-17T15:17:06;9.83;;;4.70;;
17520;SDS011;8878;-33.370;-70.552;2023-08-17T15:19:38;9.13;;;5.67;;
17520;SDS011;8878;-33.370;-70.552;2023-08-17T15:22:09;11.23;;;5.55;;
17520;SDS011;8878;-33.370;-70.552;2023-08-17T15:27:12;9.75;;;4.88;;
17520;SDS011;8878;-33.370;-70.552;2023-08-17T15:29:41;5.95;;;3.60;;
17520;SDS011;8878;-33.370;-70.552;2023-08-17T15:32:10;9.45;;;4.60;;
17520;SDS011;8878;-33.370;-70.552;2023-08-17T15:34:40;14.33;;;5.33;;
17520;SDS011;8878;-33.370;-70.552;2023-08-17T15:37:11;12.73;;;5.93;;
17520;SDS011;8878;-33.370;-70.552;2023-08-17T15:39:41;7.30;;;5.20;;
17520;SDS011;8878;-33.370;-70.552;2023-08-17T15:42:10;8.67;;;5.53;;
17520;SDS011;8878;-33.370;-70.552;2023-08-17T15:44:40;9.02;;;5.75;;
17520;SDS011;8878;-33.370;-70.552;2023-08-17T15:47:09;6.68;;;3.60;;
17520;SDS011;8878;-33.370;-70.552;2023-08-17T15:49:38;20.77;;;4.77;;
17520;SDS011;8878;-33.370;-70.552;2023-08-17T15:52:08;12.65;;;5.90;;
17520;SDS011;8878;-33.370;-70.552;2023-08-17T15:54:39;10.03;;;5.37;;
17520;SDS011;8878;-33.370;-70.552;2023-08-17T15:57:10;9.47;;;4.67;;
17520;SDS011;8878;-33.370;-70.552;2023-08-17T15:59:40;11.20;;;4.70;;
17520;SDS011;8878;-33.370;-70.552;2023-08-17T16:02:09;10.90;;;6.73;;
17520;SDS011;8878;-33.370;-70.552;2023-08-17T16:04:39;14.07;;;5.07;;
17520;SDS011;8878;-33.370;-70.552;2023-08-17T16:07:08;11.67;;;5.13;;
17520;SDS011;8878;-33.370;-70.552;2023-08-17T16:59:53;8.63;;;5.28;;
17520;SDS011;8878;-33.370;-70.552;2023-08-17T17:02:23;9.60;;;5.00;;
17520;SDS011;8878;-33.370;-70.552;2023-08-17T17:04:53;6.20;;;4.22;;
17520;SDS011;8878;-33.370;-70.552;2023-08-17T17:07:22;5.97;;;3.40;;
17520;SDS011;8878;-33.370;-70.552;2023-08-17T17:09:51;9.95;;;5.63;;
17520;SDS011;8878;-33.370;-70.552;2023-08-17T17:12:22;5.95;;;4.75;;
17520;SDS011;8878;-33.370;-70.552;2023-08-17T17:14:53;13.18;;;5.93;;
17520;SDS011;8878;-33.370;-70.552;2023-08-17T17:17:23;4.13;;;3.63;;
17520;SDS011;8878;-33.370;-70.552;2023-08-17T17:19:52;6.68;;;5.15;;
17520;SDS011;8878;-33.370;-70.552;2023-08-17T17:22:21;11.43;;;4.35;;
17520;SDS011;8878;-33.370;-70.552;2023-08-17T17:24:51;10.48;;;4.18;;
17520;SDS011;8878;-33.370;-70.552;2023-08-17T17:27:21;6.80;;;4.18;;
17520;SDS011;8878;-33.370;-70.552;2023-08-17T17:29:50;8.88;;;4.88;;
17520;SDS011;8878;-33.370;-70.552;2023-08-17T18:04:21;6.68;;;3.45;;
17520;SDS011;8878;-33.370;-70.552;2023-08-17T18:06:50;12.40;;;3.15;;
17520;SDS011;8878;-33.370;-70.552;2023-08-17T20:33:03;3.50;;;0.73;;
17520;SDS011;8878;-33.370;-70.552;2023-08-17T20:35:33;2.80;;;1.07;;
17520;SDS011;8878;-33.370;-70.552;2023-08-17T20:53:50;0.63;;;0.63;;
17520;SDS011;8878;-33.370;-70.552;2023-08-17T20:56:19;0.43;;;0.43;;
17520;SDS011;8878;-33.370;-70.552;2023-08-17T20:58:51;0.57;;;0.57;;
17520;SDS011;8878;-33.370;-70.552;2023-08-17T21:01:21;0.40;;;0.40;;
17520;SDS011;8878;-33.370;-70.552;2023-08-17T21:03:51;0.50;;;0.50;;
17520;SDS011;8878;-33.370;-70.552;2023-08-17T21:06:21;0.30;;;0.30;;